sensor_id;sensor_type;location;lat;lon;timestamp;P1;durP1;ratioP1;P2;durP2;ratioP2
10811;SDS011;5458;51.496;7.334;2022-12-18T00:01:05;59.47;;;40.80;;
10811;SDS011;5458;51.496;7.334;2022-12-18T00:03:39;59.53;;;41.77;;
10811;SDS011;5458;51.496;7.334;2022-12-18T00:06:04;63.40;;;42.57;;
10811;SDS011;5458;51.496;7.334;2022-12-18T00:08:30;58.43;;;40.70;;
10811;SDS011;5458;51.496;7.334;2022-12-18T00:10:55;63.60;;;41.00;;
10811;SDS011;5458;51.496;7.334;2022-12-18T00:13:32;65.00;;;41.47;;
10811;SDS011;5458;51.496;7.334;2022-12-18T00:16:01;62.47;;;40.80;;
10811;SDS011;5458;51.496;7.334;2022-12-18T00:18:28;60.30;;;40.83;;
10811;SDS011;5458;51.496;7.334;2022-12-18T00:20:54;69.63;;;44.13;;
10811;SDS011;5458;51.496;7.334;2022-12-18T00:23:24;60.27;;;42.77;;
10811;SDS011;5458;51.496;7.334;2022-12-18T00:25:49;61.57;;;40.80;;
10811;SDS011;5458;51.496;7.334;2022-12-18T00:28:15;65.03;;;41.83;;
10811;SDS011;5458;51.496;7.334;2022-12-18T00:30:40;57.87;;;40.47;;
10811;SDS011;5458;51.496;7.334;2022-12-18T00:33:06;63.33;;;39.70;;
10811;SDS011;5458;51.496;7.334;2022-12-18T00:35:32;63.47;;;43.87;;
10811;SDS011;5458;51.496;7.334;2022-12-18T00:37:57;66.13;;;43.10;;
10811;SDS011;5458;51.496;7.334;2022-12-18T00:40:23;70.77;;;41.37;;
10811;SDS011;5458;51.496;7.334;2022-12-18T00:42:48;64.97;;;40.77;;
10811;SDS011;5458;51.496;7.334;2022-12-18T00:45:26;62.43;;;40.87;;
10811;SDS011;5458;51.496;7.334;2022-12-18T00:47:53;61.87;;;40.33;;
10811;SDS011;5458;51.496;7.334;2022-12-18T00:50:20;60.43;;;40.23;;
10811;SDS011;5458;51.496;7.334;2022-12-18T00:52:46;61.23;;;39.93;;
10811;SDS011;5458;51.496;7.334;2022-12-18T00:55:12;60.77;;;41.23;;
10811;SDS011;5458;51.496;7.334;2022-12-18T00:57:38;61.87;;;41.93;;
10811;SDS011;5458;51.496;7.334;2022-12-18T01:00:04;62.50;;;38.70;;
10811;SDS011;5458;51.496;7.334;2022-12-18T01:02:31;63.30;;;40.27;;
10811;SDS011;5458;51.496;7.334;2022-12-18T01:04:56;67.73;;;42.17;;
10811;SDS011;5458;51.496;7.334;2022-12-18T01:07:22;64.73;;;43.37;;
10811;SDS011;5458;51.496;7.334;2022-12-18T01:09:47;60.03;;;40.33;;
10811;SDS011;5458;51.496;7.334;2022-12-18T01:12:13;67.07;;;40.73;;
10811;SDS011;5458;51.496;7.334;2022-12-18T01:14:39;77.30;;;44.70;;
10811;SDS011;5458;51.496;7.334;2022-12-18T01:17:04;67.23;;;42.30;;
10811;SDS011;5458;51.496;7.334;2022-12-18T01:19:30;66.33;;;43.70;;
10811;SDS011;5458;51.496;7.334;2022-12-18T01:21:55;62.03;;;42.93;;
10811;SDS011;5458;51.496;7.334;2022-12-18T01:24:21;64.97;;;42.47;;
10811;SDS011;5458;51.496;7.334;2022-12-18T01:26:47;60.17;;;42.93;;
10811;SDS011;5458;51.496;7.334;2022-12-18T01:29:12;60.40;;;41.77;;
10811;SDS011;5458;51.496;7.334;2022-12-18T01:31:38;64.37;;;42.47;;
10811;SDS011;5458;51.496;7.334;2022-12-18T01:34:04;61.17;;;41.57;;
10811;SDS011;5458;51.496;7.334;2022-12-18T01:36:31;59.10;;;40.13;;
10811;SDS011;5458;51.496;7.334;2022-12-18T01:39:02;69.07;;;42.77;;
10811;SDS011;5458;51.496;7.334;2022-12-18T01:41:31;64.17;;;42.13;;
10811;SDS011;5458;51.496;7.334;2022-12-18T01:52:38;62.50;;;40.83;;
10811;SDS011;5458;51.496;7.334;2022-12-18T01:55:08;59.33;;;40.40;;
10811;SDS011;5458;51.496;7.334;2022-12-18T01:57:35;64.40;;;41.67;;
10811;SDS011;5458;51.496;7.334;2022-12-18T02:00:07;62.47;;;42.03;;
10811;SDS011;5458;51.496;7.334;2022-12-18T02:02:43;65.17;;;41.27;;
10811;SDS011;5458;51.496;7.334;2022-12-18T02:05:10;62.13;;;41.13;;
10811;SDS011;5458;51.496;7.334;2022-12-18T02:07:42;64.40;;;40.40;;
10811;SDS011;5458;51.496;7.334;2022-12-18T02:10:23;66.00;;;42.53;;
10811;SDS011;5458;51.496;7.334;2022-12-18T02:13:43;70.70;;;42.40;;
10811;SDS011;5458;51.496;7.334;2022-12-18T02:15:58;67.93;;;41.87;;
10811;SDS011;5458;51.496;7.334;2022-12-18T02:18:33;62.93;;;42.00;;
10811;SDS011;5458;51.496;7.334;2022-12-18T02:26:59;63.53;;;40.57;;
10811;SDS011;5458;51.496;7.334;2022-12-18T02:29:38;61.27;;;40.23;;
10811;SDS011;5458;51.496;7.334;2022-12-18T02:32:08;64.93;;;40.93;;
10811;SDS011;5458;51.496;7.334;2022-12-18T02:34:39;60.57;;;40.03;;
10811;SDS011;5458;51.496;7.334;2022-12-18T02:37:05;62.00;;;40.80;;
10811;SDS011;5458;51.496;7.334;2022-12-18T02:39:35;58.07;;;40.93;;
10811;SDS011;5458;51.496;7.334;2022-12-18T02:42:03;57.37;;;38.80;;
10811;SDS011;5458;51.496;7.334;2022-12-18T02:44:33;54.97;;;39.27;;
10811;SDS011;5458;51.496;7.334;2022-12-18T02:47:00;58.90;;;37.73;;
10811;SDS011;5458;51.496;7.334;2022-12-18T02:49:30;64.80;;;40.00;;
10811;SDS011;5458;51.496;7.334;2022-12-18T02:54:57;64.93;;;41.57;;
10811;SDS011;5458;51.496;7.334;2022-12-18T03:00:37;61.90;;;40.67;;
10811;SDS011;5458;51.496;7.334;2022-12-18T03:03:13;57.27;;;39.93;;
10811;SDS011;5458;51.496;7.334;2022-12-18T03:05:47;55.67;;;38.90;;
10811;SDS011;5458;51.496;7.334;2022-12-18T03:08:22;53.27;;;38.73;;
10811;SDS011;5458;51.496;7.334;2022-12-18T03:10:56;52.83;;;38.13;;
10811;SDS011;5458;51.496;7.334;2022-12-18T03:13:29;53.07;;;40.00;;
10811;SDS011;5458;51.496;7.334;2022-12-18T03:15:59;57.23;;;38.83;;
10811;SDS011;5458;51.496;7.334;2022-12-18T03:20:53;63.27;;;40.10;;
10811;SDS011;5458;51.496;7.334;2022-12-18T03:23:23;49.40;;;38.00;;
10811;SDS011;5458;51.496;7.334;2022-12-18T03:25:54;57.07;;;39.27;;
10811;SDS011;5458;51.496;7.334;2022-12-18T03:28:24;57.57;;;41.90;;
10811;SDS011;5458;51.496;7.334;2022-12-18T03:30:57;57.50;;;38.17;;
10811;SDS011;5458;51.496;7.334;2022-12-18T03:33:26;54.87;;;36.60;;
10811;SDS011;5458;51.496;7.334;2022-12-18T03:35:56;52.13;;;37.20;;
10811;SDS011;5458;51.496;7.334;2022-12-18T03:38:22;61.37;;;39.00;;
10811;SDS011;5458;51.496;7.334;2022-12-18T03:46:05;58.97;;;40.53;;
10811;SDS011;5458;51.496;7.334;2022-12-18T03:48:38;62.70;;;40.50;;
10811;SDS011;5458;51.496;7.334;2022-12-18T03:51:09;54.63;;;39.20;;
10811;SDS011;5458;51.496;7.334;2022-12-18T03:53:44;58.50;;;39.93;;
10811;SDS011;5458;51.496;7.334;2022-12-18T03:56:17;52.33;;;37.43;;
10811;SDS011;5458;51.496;7.334;2022-12-18T03:58:44;53.60;;;37.03;;
10811;SDS011;5458;51.496;7.334;2022-12-18T04:01:13;55.67;;;37.30;;
10811;SDS011;5458;51.496;7.334;2022-12-18T04:03:41;50.87;;;36.30;;
10811;SDS011;5458;51.496;7.334;2022-12-18T04:06:08;59.43;;;38.00;;
10811;SDS011;5458;51.496;7.334;2022-12-18T04:08:35;53.40;;;36.50;;
10811;SDS011;5458;51.496;7.334;2022-12-18T04:11:01;59.70;;;37.87;;
10811;SDS011;5458;51.496;7.334;2022-12-18T04:13:28;57.23;;;37.53;;
10811;SDS011;5458;51.496;7.334;2022-12-18T04:15:56;54.30;;;36.57;;
10811;SDS011;5458;51.496;7.334;2022-12-18T04:18:22;52.63;;;38.40;;
10811;SDS011;5458;51.496;7.334;2022-12-18T04:20:48;62.30;;;39.23;;
10811;SDS011;5458;51.496;7.334;2022-12-18T04:23:13;54.67;;;38.23;;
10811;SDS011;5458;51.496;7.334;2022-12-18T04:25:39;54.97;;;37.23;;
10811;SDS011;5458;51.496;7.334;2022-12-18T04:28:04;56.07;;;37.97;;
10811;SDS011;5458;51.496;7.334;2022-12-18T04:30:30;57.47;;;37.77;;
10811;SDS011;5458;51.496;7.334;2022-12-18T04:32:55;59.10;;;37.87;;
10811;SDS011;5458;51.496;7.334;2022-12-18T04:35:21;51.43;;;36.90;;
10811;SDS011;5458;51.496;7.334;2022-12-18T04:37:47;66.10;;;39.83;;
10811;SDS011;5458;51.496;7.334;2022-12-18T04:40:12;59.27;;;38.23;;
10811;SDS011;5458;51.496;7.334;2022-12-18T04:42:38;51.13;;;36.87;;
10811;SDS011;5458;51.496;7.334;2022-12-18T04:45:05;58.77;;;38.97;;
10811;SDS011;5458;51.496;7.334;2022-12-18T04:47:32;55.43;;;37.53;;
10811;SDS011;5458;51.496;7.334;2022-12-18T04:49:57;54.17;;;35.60;;
10811;SDS011;5458;51.496;7.334;2022-12-18T04:52:23;50.37;;;36.57;;
10811;SDS011;5458;51.496;7.334;2022-12-18T04:54:49;54.83;;;35.97;;
10811;SDS011;5458;51.496;7.334;2022-12-18T04:57:14;55.77;;;36.53;;
10811;SDS011;5458;51.496;7.334;2022-12-18T04:59:40;54.97;;;37.00;;
10811;SDS011;5458;51.496;7.334;2022-12-18T05:02:05;48.53;;;34.93;;
10811;SDS011;5458;51.496;7.334;2022-12-18T05:04:31;58.47;;;37.73;;
10811;SDS011;5458;51.496;7.334;2022-12-18T05:06:57;54.73;;;35.70;;
10811;SDS011;5458;51.496;7.334;2022-12-18T05:09:22;53.13;;;35.40;;
10811;SDS011;5458;51.496;7.334;2022-12-18T05:11:48;52.00;;;36.43;;
10811;SDS011;5458;51.496;7.334;2022-12-18T05:14:14;51.97;;;35.70;;
10811;SDS011;5458;51.496;7.334;2022-12-18T05:16:40;54.57;;;36.60;;
10811;SDS011;5458;51.496;7.334;2022-12-18T05:19:06;47.77;;;32.73;;
10811;SDS011;5458;51.496;7.334;2022-12-18T05:21:31;48.23;;;34.13;;
10811;SDS011;5458;51.496;7.334;2022-12-18T05:23:57;51.27;;;34.07;;
10811;SDS011;5458;51.496;7.334;2022-12-18T05:26:22;48.07;;;33.03;;
10811;SDS011;5458;51.496;7.334;2022-12-18T05:28:48;45.80;;;33.27;;
10811;SDS011;5458;51.496;7.334;2022-12-18T05:31:14;53.27;;;34.83;;
10811;SDS011;5458;51.496;7.334;2022-12-18T05:33:39;49.27;;;34.90;;
10811;SDS011;5458;51.496;7.334;2022-12-18T05:36:06;44.87;;;31.13;;
10811;SDS011;5458;51.496;7.334;2022-12-18T05:38:33;40.47;;;29.27;;
10811;SDS011;5458;51.496;7.334;2022-12-18T05:41:00;41.87;;;28.67;;
10811;SDS011;5458;51.496;7.334;2022-12-18T05:43:27;43.37;;;29.73;;
10811;SDS011;5458;51.496;7.334;2022-12-18T05:45:53;35.70;;;28.53;;
10811;SDS011;5458;51.496;7.334;2022-12-18T05:48:19;37.83;;;27.30;;
10811;SDS011;5458;51.496;7.334;2022-12-18T05:50:46;38.00;;;26.43;;
10811;SDS011;5458;51.496;7.334;2022-12-18T05:53:14;40.53;;;26.80;;
10811;SDS011;5458;51.496;7.334;2022-12-18T05:55:41;37.17;;;27.60;;
10811;SDS011;5458;51.496;7.334;2022-12-18T05:58:09;40.27;;;26.87;;
10811;SDS011;5458;51.496;7.334;2022-12-18T06:00:37;37.00;;;26.47;;
10811;SDS011;5458;51.496;7.334;2022-12-18T06:03:06;33.90;;;25.23;;
10811;SDS011;5458;51.496;7.334;2022-12-18T06:05:36;31.83;;;25.13;;
10811;SDS011;5458;51.496;7.334;2022-12-18T06:08:02;40.10;;;26.60;;
10811;SDS011;5458;51.496;7.334;2022-12-18T06:10:28;39.90;;;27.57;;
10811;SDS011;5458;51.496;7.334;2022-12-18T06:12:54;34.80;;;26.10;;
10811;SDS011;5458;51.496;7.334;2022-12-18T06:15:19;34.27;;;25.97;;
10811;SDS011;5458;51.496;7.334;2022-12-18T06:17:45;35.00;;;25.63;;
10811;SDS011;5458;51.496;7.334;2022-12-18T06:20:11;34.53;;;26.17;;
10811;SDS011;5458;51.496;7.334;2022-12-18T06:22:36;35.20;;;26.10;;
10811;SDS011;5458;51.496;7.334;2022-12-18T06:25:02;36.37;;;25.80;;
10811;SDS011;5458;51.496;7.334;2022-12-18T06:27:28;37.07;;;24.77;;
10811;SDS011;5458;51.496;7.334;2022-12-18T06:29:53;37.50;;;26.47;;
10811;SDS011;5458;51.496;7.334;2022-12-18T06:32:19;38.70;;;26.87;;
10811;SDS011;5458;51.496;7.334;2022-12-18T06:34:45;38.43;;;27.10;;
10811;SDS011;5458;51.496;7.334;2022-12-18T06:37:10;37.57;;;26.50;;
10811;SDS011;5458;51.496;7.334;2022-12-18T06:39:36;40.60;;;27.43;;
10811;SDS011;5458;51.496;7.334;2022-12-18T06:42:01;36.67;;;26.60;;
10811;SDS011;5458;51.496;7.334;2022-12-18T06:44:28;36.90;;;25.07;;
10811;SDS011;5458;51.496;7.334;2022-12-18T06:46:53;35.57;;;26.23;;
10811;SDS011;5458;51.496;7.334;2022-12-18T06:49:20;34.40;;;25.00;;
10811;SDS011;5458;51.496;7.334;2022-12-18T06:51:45;35.13;;;26.27;;
10811;SDS011;5458;51.496;7.334;2022-12-18T06:54:11;35.07;;;24.97;;
10811;SDS011;5458;51.496;7.334;2022-12-18T06:56:37;33.23;;;25.43;;
10811;SDS011;5458;51.496;7.334;2022-12-18T06:59:02;33.33;;;25.20;;
10811;SDS011;5458;51.496;7.334;2022-12-18T07:01:28;34.40;;;26.13;;
10811;SDS011;5458;51.496;7.334;2022-12-18T07:03:54;31.53;;;24.70;;
10811;SDS011;5458;51.496;7.334;2022-12-18T07:06:21;32.90;;;24.63;;
10811;SDS011;5458;51.496;7.334;2022-12-18T07:08:49;34.27;;;25.57;;
10811;SDS011;5458;51.496;7.334;2022-12-18T07:11:15;32.40;;;24.17;;
10811;SDS011;5458;51.496;7.334;2022-12-18T07:13:42;32.40;;;24.57;;
10811;SDS011;5458;51.496;7.334;2022-12-18T07:16:08;35.67;;;25.30;;
10811;SDS011;5458;51.496;7.334;2022-12-18T07:18:36;35.70;;;25.00;;
10811;SDS011;5458;51.496;7.334;2022-12-18T07:21:05;32.60;;;22.93;;
10811;SDS011;5458;51.496;7.334;2022-12-18T07:23:32;34.40;;;22.33;;
10811;SDS011;5458;51.496;7.334;2022-12-18T07:26:05;30.57;;;22.83;;
10811;SDS011;5458;51.496;7.334;2022-12-18T07:28:34;30.67;;;21.97;;
10811;SDS011;5458;51.496;7.334;2022-12-18T07:31:04;31.80;;;23.73;;
10811;SDS011;5458;51.496;7.334;2022-12-18T07:33:31;28.03;;;20.33;;
10811;SDS011;5458;51.496;7.334;2022-12-18T07:35:58;28.60;;;21.67;;
10811;SDS011;5458;51.496;7.334;2022-12-18T07:38:24;31.23;;;22.10;;
10811;SDS011;5458;51.496;7.334;2022-12-18T07:40:50;24.80;;;20.17;;
10811;SDS011;5458;51.496;7.334;2022-12-18T07:43:15;35.30;;;21.80;;
10811;SDS011;5458;51.496;7.334;2022-12-18T07:45:41;28.60;;;22.23;;
10811;SDS011;5458;51.496;7.334;2022-12-18T07:48:07;32.83;;;21.93;;
10811;SDS011;5458;51.496;7.334;2022-12-18T07:50:33;26.40;;;18.83;;
10811;SDS011;5458;51.496;7.334;2022-12-18T07:52:59;31.63;;;19.63;;
10811;SDS011;5458;51.496;7.334;2022-12-18T07:55:28;22.80;;;19.60;;
10811;SDS011;5458;51.496;7.334;2022-12-18T07:57:54;26.93;;;18.50;;
10811;SDS011;5458;51.496;7.334;2022-12-18T08:00:20;24.80;;;18.30;;
10811;SDS011;5458;51.496;7.334;2022-12-18T08:02:46;28.03;;;19.40;;
10811;SDS011;5458;51.496;7.334;2022-12-18T08:05:11;25.20;;;18.20;;
10811;SDS011;5458;51.496;7.334;2022-12-18T08:07:38;21.73;;;16.00;;
10811;SDS011;5458;51.496;7.334;2022-12-18T08:10:04;21.13;;;15.97;;
10811;SDS011;5458;51.496;7.334;2022-12-18T08:12:30;21.17;;;17.03;;
10811;SDS011;5458;51.496;7.334;2022-12-18T08:14:55;23.60;;;16.90;;
10811;SDS011;5458;51.496;7.334;2022-12-18T08:17:21;18.50;;;15.17;;
10811;SDS011;5458;51.496;7.334;2022-12-18T08:19:46;23.00;;;16.57;;
10811;SDS011;5458;51.496;7.334;2022-12-18T08:22:12;20.07;;;15.43;;
10811;SDS011;5458;51.496;7.334;2022-12-18T08:24:37;20.57;;;15.33;;
10811;SDS011;5458;51.496;7.334;2022-12-18T08:27:03;15.00;;;12.93;;
10811;SDS011;5458;51.496;7.334;2022-12-18T08:29:28;16.07;;;12.03;;
10811;SDS011;5458;51.496;7.334;2022-12-18T08:31:55;11.07;;;9.60;;
10811;SDS011;5458;51.496;7.334;2022-12-18T08:34:21;12.77;;;11.07;;
10811;SDS011;5458;51.496;7.334;2022-12-18T08:36:46;10.80;;;9.67;;
10811;SDS011;5458;51.496;7.334;2022-12-18T08:39:12;10.60;;;9.53;;
10811;SDS011;5458;51.496;7.334;2022-12-18T08:41:37;10.70;;;9.43;;
10811;SDS011;5458;51.496;7.334;2022-12-18T08:44:03;11.93;;;10.63;;
10811;SDS011;5458;51.496;7.334;2022-12-18T08:46:47;11.90;;;10.30;;
10811;SDS011;5458;51.496;7.334;2022-12-18T08:49:13;12.60;;;10.20;;
10811;SDS011;5458;51.496;7.334;2022-12-18T08:51:39;13.23;;;9.87;;
10811;SDS011;5458;51.496;7.334;2022-12-18T08:54:04;12.60;;;9.83;;
10811;SDS011;5458;51.496;7.334;2022-12-18T08:56:31;11.40;;;9.70;;
10811;SDS011;5458;51.496;7.334;2022-12-18T08:58:56;11.97;;;9.43;;
10811;SDS011;5458;51.496;7.334;2022-12-18T09:01:23;10.47;;;9.20;;
10811;SDS011;5458;51.496;7.334;2022-12-18T09:03:49;12.57;;;9.67;;
10811;SDS011;5458;51.496;7.334;2022-12-18T09:06:16;12.70;;;9.67;;
10811;SDS011;5458;51.496;7.334;2022-12-18T09:08:43;12.87;;;8.40;;
10811;SDS011;5458;51.496;7.334;2022-12-18T09:11:13;11.63;;;9.70;;
10811;SDS011;5458;51.496;7.334;2022-12-18T09:13:43;9.87;;;8.87;;
10811;SDS011;5458;51.496;7.334;2022-12-18T09:16:09;11.17;;;9.03;;
10811;SDS011;5458;51.496;7.334;2022-12-18T09:18:34;10.90;;;8.23;;
10811;SDS011;5458;51.496;7.334;2022-12-18T09:21:06;10.10;;;9.00;;
10811;SDS011;5458;51.496;7.334;2022-12-18T09:23:33;9.77;;;8.70;;
10811;SDS011;5458;51.496;7.334;2022-12-18T09:25:59;10.63;;;9.53;;
10811;SDS011;5458;51.496;7.334;2022-12-18T09:28:24;13.80;;;10.27;;
10811;SDS011;5458;51.496;7.334;2022-12-18T09:30:50;10.40;;;9.13;;
10811;SDS011;5458;51.496;7.334;2022-12-18T09:33:16;14.13;;;10.75;;
10811;SDS011;5458;51.496;7.334;2022-12-18T09:35:42;13.43;;;11.07;;
10811;SDS011;5458;51.496;7.334;2022-12-18T09:38:16;15.68;;;11.45;;
10811;SDS011;5458;51.496;7.334;2022-12-18T09:43:50;13.00;;;10.03;;
10811;SDS011;5458;51.496;7.334;2022-12-18T09:46:17;12.25;;;9.88;;
10811;SDS011;5458;51.496;7.334;2022-12-18T09:48:50;12.68;;;10.57;;
10811;SDS011;5458;51.496;7.334;2022-12-18T09:51:22;11.23;;;8.73;;
10811;SDS011;5458;51.496;7.334;2022-12-18T09:53:55;13.15;;;9.43;;
10811;SDS011;5458;51.496;7.334;2022-12-18T09:56:26;11.95;;;8.93;;
10811;SDS011;5458;51.496;7.334;2022-12-18T09:59:00;11.00;;;8.25;;
10811;SDS011;5458;51.496;7.334;2022-12-18T10:01:27;10.35;;;9.25;;
10811;SDS011;5458;51.496;7.334;2022-12-18T10:03:54;10.88;;;9.45;;
10811;SDS011;5458;51.496;7.334;2022-12-18T10:06:32;12.35;;;8.25;;
10811;SDS011;5458;51.496;7.334;2022-12-18T10:15:11;12.68;;;9.13;;
10811;SDS011;5458;51.496;7.334;2022-12-18T10:20:41;22.80;;;14.63;;
10811;SDS011;5458;51.496;7.334;2022-12-18T10:25:51;18.25;;;16.27;;
10811;SDS011;5458;51.496;7.334;2022-12-18T10:28:25;21.98;;;16.92;;
10811;SDS011;5458;51.496;7.334;2022-12-18T10:30:51;20.48;;;15.82;;
10811;SDS011;5458;51.496;7.334;2022-12-18T10:33:18;20.42;;;10.73;;
10811;SDS011;5458;51.496;7.334;2022-12-18T10:35:46;19.60;;;11.23;;
10811;SDS011;5458;51.496;7.334;2022-12-18T10:40:48;18.15;;;10.73;;
10811;SDS011;5458;51.496;7.334;2022-12-18T10:43:15;12.52;;;10.35;;
10811;SDS011;5458;51.496;7.334;2022-12-18T10:45:57;18.13;;;10.63;;
10811;SDS011;5458;51.496;7.334;2022-12-18T10:48:22;16.05;;;9.90;;
10811;SDS011;5458;51.496;7.334;2022-12-18T10:50:49;13.52;;;9.98;;
10811;SDS011;5458;51.496;7.334;2022-12-18T10:53:21;15.40;;;8.60;;
10811;SDS011;5458;51.496;7.334;2022-12-18T10:55:48;15.20;;;7.00;;
10811;SDS011;5458;51.496;7.334;2022-12-18T10:58:16;22.77;;;8.40;;
10811;SDS011;5458;51.496;7.334;2022-12-18T11:01:03;22.43;;;9.07;;
10811;SDS011;5458;51.496;7.334;2022-12-18T11:08:37;15.18;;;9.52;;
10811;SDS011;5458;51.496;7.334;2022-12-18T11:11:03;12.43;;;9.17;;
10811;SDS011;5458;51.496;7.334;2022-12-18T11:13:32;17.53;;;7.63;;
10811;SDS011;5458;51.496;7.334;2022-12-18T11:15:58;17.03;;;7.50;;
10811;SDS011;5458;51.496;7.334;2022-12-18T11:18:32;18.90;;;7.85;;
10811;SDS011;5458;51.496;7.334;2022-12-18T11:21:04;29.30;;;9.70;;
10811;SDS011;5458;51.496;7.334;2022-12-18T11:23:32;24.07;;;8.43;;
10811;SDS011;5458;51.496;7.334;2022-12-18T11:26:00;34.58;;;10.07;;
10811;SDS011;5458;51.496;7.334;2022-12-18T11:28:29;26.48;;;8.63;;
10811;SDS011;5458;51.496;7.334;2022-12-18T11:31:17;19.00;;;9.50;;
10811;SDS011;5458;51.496;7.334;2022-12-18T11:33:55;30.17;;;10.60;;
10811;SDS011;5458;51.496;7.334;2022-12-18T11:36:44;18.00;;;9.40;;
10811;SDS011;5458;51.496;7.334;2022-12-18T11:39:23;25.17;;;10.97;;
10811;SDS011;5458;51.496;7.334;2022-12-18T11:42:01;15.07;;;10.07;;
10811;SDS011;5458;51.496;7.334;2022-12-18T11:48:03;14.87;;;10.20;;
10811;SDS011;5458;51.496;7.334;2022-12-18T11:53:17;14.00;;;10.53;;
10811;SDS011;5458;51.496;7.334;2022-12-18T11:58:54;16.43;;;11.43;;
10811;SDS011;5458;51.496;7.334;2022-12-18T12:07:04;17.97;;;10.87;;
10811;SDS011;5458;51.496;7.334;2022-12-18T12:22:45;24.80;;;12.23;;
10811;SDS011;5458;51.496;7.334;2022-12-18T12:25:28;21.20;;;11.75;;
10811;SDS011;5458;51.496;7.334;2022-12-18T12:39:15;24.40;;;11.03;;
10811;SDS011;5458;51.496;7.334;2022-12-18T12:41:45;16.87;;;12.17;;
10811;SDS011;5458;51.496;7.334;2022-12-18T12:44:35;17.73;;;10.70;;
10811;SDS011;5458;51.496;7.334;2022-12-18T12:47:15;17.33;;;10.53;;
10811;SDS011;5458;51.496;7.334;2022-12-18T12:49:45;14.00;;;10.90;;
10811;SDS011;5458;51.496;7.334;2022-12-18T12:52:27;20.30;;;11.68;;
10811;SDS011;5458;51.496;7.334;2022-12-18T12:55:00;17.57;;;11.83;;
10811;SDS011;5458;51.496;7.334;2022-12-18T12:57:40;17.43;;;11.80;;
10811;SDS011;5458;51.496;7.334;2022-12-18T13:00:12;16.93;;;11.67;;
10811;SDS011;5458;51.496;7.334;2022-12-18T13:05:26;14.50;;;11.35;;
10811;SDS011;5458;51.496;7.334;2022-12-18T13:08:06;20.38;;;13.02;;
10811;SDS011;5458;51.496;7.334;2022-12-18T13:13:09;16.98;;;12.30;;
10811;SDS011;5458;51.496;7.334;2022-12-18T13:15:41;19.93;;;12.60;;
10811;SDS011;5458;51.496;7.334;2022-12-18T13:18:13;18.33;;;12.90;;
10811;SDS011;5458;51.496;7.334;2022-12-18T13:20:41;19.80;;;13.50;;
10811;SDS011;5458;51.496;7.334;2022-12-18T13:23:19;20.83;;;13.27;;
10811;SDS011;5458;51.496;7.334;2022-12-18T13:26:31;20.67;;;14.00;;
10811;SDS011;5458;51.496;7.334;2022-12-18T13:31:14;17.70;;;13.00;;
10811;SDS011;5458;51.496;7.334;2022-12-18T13:34:15;17.30;;;12.50;;
10811;SDS011;5458;51.496;7.334;2022-12-18T13:36:45;17.80;;;13.18;;
10811;SDS011;5458;51.496;7.334;2022-12-18T13:41:43;18.30;;;13.57;;
10811;SDS011;5458;51.496;7.334;2022-12-18T13:47:04;18.90;;;14.60;;
10811;SDS011;5458;51.496;7.334;2022-12-18T13:49:49;15.40;;;12.93;;
10811;SDS011;5458;51.496;7.334;2022-12-18T13:52:17;17.67;;;12.43;;
10811;SDS011;5458;51.496;7.334;2022-12-18T13:54:50;20.43;;;12.87;;
10811;SDS011;5458;51.496;7.334;2022-12-18T13:57:28;13.60;;;11.67;;
10811;SDS011;5458;51.496;7.334;2022-12-18T13:59:59;16.27;;;13.67;;
10811;SDS011;5458;51.496;7.334;2022-12-18T14:02:44;16.60;;;12.97;;
10811;SDS011;5458;51.496;7.334;2022-12-18T14:05:23;15.97;;;12.27;;
10811;SDS011;5458;51.496;7.334;2022-12-18T14:07:52;14.70;;;10.87;;
10811;SDS011;5458;51.496;7.334;2022-12-18T14:10:19;15.13;;;11.30;;
10811;SDS011;5458;51.496;7.334;2022-12-18T14:12:49;11.38;;;10.00;;
10811;SDS011;5458;51.496;7.334;2022-12-18T14:18:26;10.27;;;9.03;;
10811;SDS011;5458;51.496;7.334;2022-12-18T14:21:27;10.90;;;8.77;;
10811;SDS011;5458;51.496;7.334;2022-12-18T14:24:14;15.13;;;10.98;;
10811;SDS011;5458;51.496;7.334;2022-12-18T14:26:42;11.93;;;8.90;;
10811;SDS011;5458;51.496;7.334;2022-12-18T14:29:22;10.97;;;8.50;;
10811;SDS011;5458;51.496;7.334;2022-12-18T14:34:35;15.70;;;10.50;;
10811;SDS011;5458;51.496;7.334;2022-12-18T14:37:01;10.17;;;8.67;;
10811;SDS011;5458;51.496;7.334;2022-12-18T14:39:26;15.07;;;9.43;;
10811;SDS011;5458;51.496;7.334;2022-12-18T14:41:52;10.43;;;7.50;;
10811;SDS011;5458;51.496;7.334;2022-12-18T14:44:18;10.70;;;8.37;;
10811;SDS011;5458;51.496;7.334;2022-12-18T14:46:44;11.00;;;8.13;;
10811;SDS011;5458;51.496;7.334;2022-12-18T14:51:57;23.03;;;10.27;;
10811;SDS011;5458;51.496;7.334;2022-12-18T14:54:28;12.83;;;9.83;;
10811;SDS011;5458;51.496;7.334;2022-12-18T14:59:46;11.13;;;9.07;;
10811;SDS011;5458;51.496;7.334;2022-12-18T15:02:27;12.27;;;9.03;;
10811;SDS011;5458;51.496;7.334;2022-12-18T15:05:00;17.43;;;10.50;;
10811;SDS011;5458;51.496;7.334;2022-12-18T15:07:27;14.47;;;10.03;;
10811;SDS011;5458;51.496;7.334;2022-12-18T15:10:20;15.00;;;9.63;;
10811;SDS011;5458;51.496;7.334;2022-12-18T15:15:58;14.27;;;11.20;;
10811;SDS011;5458;51.496;7.334;2022-12-18T15:18:18;16.90;;;12.83;;
10811;SDS011;5458;51.496;7.334;2022-12-18T15:20:48;13.63;;;10.25;;
10811;SDS011;5458;51.496;7.334;2022-12-18T15:25:57;14.03;;;10.83;;
10811;SDS011;5458;51.496;7.334;2022-12-18T15:28:35;14.30;;;10.77;;
10811;SDS011;5458;51.496;7.334;2022-12-18T15:33:35;9.70;;;8.37;;
10811;SDS011;5458;51.496;7.334;2022-12-18T15:36:04;12.93;;;8.80;;
10811;SDS011;5458;51.496;7.334;2022-12-18T15:38:34;9.20;;;7.80;;
10811;SDS011;5458;51.496;7.334;2022-12-18T15:40:59;9.43;;;8.23;;
10811;SDS011;5458;51.496;7.334;2022-12-18T15:43:25;11.27;;;8.10;;
10811;SDS011;5458;51.496;7.334;2022-12-18T15:46:01;11.70;;;9.23;;
10811;SDS011;5458;51.496;7.334;2022-12-18T15:48:40;12.10;;;9.83;;
10811;SDS011;5458;51.496;7.334;2022-12-18T15:51:15;10.27;;;8.53;;
10811;SDS011;5458;51.496;7.334;2022-12-18T15:53:47;11.50;;;8.50;;
10811;SDS011;5458;51.496;7.334;2022-12-18T15:56:15;11.52;;;9.20;;
10811;SDS011;5458;51.496;7.334;2022-12-18T15:58:59;14.00;;;9.67;;
10811;SDS011;5458;51.496;7.334;2022-12-18T16:01:27;12.60;;;10.63;;
10811;SDS011;5458;51.496;7.334;2022-12-18T16:03:54;13.07;;;9.80;;
10811;SDS011;5458;51.496;7.334;2022-12-18T16:06:21;13.20;;;9.53;;
10811;SDS011;5458;51.496;7.334;2022-12-18T16:08:47;14.37;;;10.13;;
10811;SDS011;5458;51.496;7.334;2022-12-18T16:11:20;14.67;;;10.10;;
10811;SDS011;5458;51.496;7.334;2022-12-18T16:14:12;14.73;;;10.87;;
10811;SDS011;5458;51.496;7.334;2022-12-18T16:16:53;14.80;;;10.83;;
10811;SDS011;5458;51.496;7.334;2022-12-18T16:19:26;12.93;;;10.30;;
10811;SDS011;5458;51.496;7.334;2022-12-18T16:21:54;13.57;;;11.33;;
10811;SDS011;5458;51.496;7.334;2022-12-18T16:24:22;13.83;;;10.87;;
10811;SDS011;5458;51.496;7.334;2022-12-18T16:26:52;16.77;;;11.23;;
10811;SDS011;5458;51.496;7.334;2022-12-18T16:29:19;16.43;;;11.10;;
10811;SDS011;5458;51.496;7.334;2022-12-18T16:31:59;15.83;;;10.97;;
10811;SDS011;5458;51.496;7.334;2022-12-18T16:36:53;21.60;;;13.53;;
10811;SDS011;5458;51.496;7.334;2022-12-18T16:39:23;19.00;;;12.75;;
10811;SDS011;5458;51.496;7.334;2022-12-18T16:41:49;18.50;;;12.90;;
10811;SDS011;5458;51.496;7.334;2022-12-18T16:44:14;20.73;;;14.20;;
10811;SDS011;5458;51.496;7.334;2022-12-18T16:46:40;19.73;;;14.37;;
10811;SDS011;5458;51.496;7.334;2022-12-18T16:49:13;16.80;;;13.77;;
10811;SDS011;5458;51.496;7.334;2022-12-18T16:51:40;15.17;;;11.97;;
10811;SDS011;5458;51.496;7.334;2022-12-18T16:54:06;18.10;;;13.07;;
10811;SDS011;5458;51.496;7.334;2022-12-18T16:56:32;19.35;;;12.52;;